Morgenster — PHMY — position and weather

sailwx.info

Track history (hours):
 
Tides and Currents Weather Stations Pressure Air Temp Water Temp Dewpoint Dewpoint Depression Visibility Wind Speed Wind Dir Waves Ship Positions

Morgenster

Last reported at 2020-Jul-08 21:57 UTC. Time now 2020-Jul-09 04:53 UTC.
Position N 54°11' E 012°06'.

Length 38 m; draft 2.4 m.

Type: Sailing vessel. MMSI: 245136000.

Date/timePositionNaut miles runAvg speedWind from/ knotsBaromVisibWave heightAir tempDewpointWater temp
2020-Jul-08 21:57N 54°11' E 012°06'0 0.0
2020-Jul-08 20:30N 54°11' E 012°06'0 0.0
2020-Jul-08 17:24N 54°11' E 012°06'0 0.0
2020-Jul-08 16:57N 54°11' E 012°06'0 0.2
2020-Jul-08 15:30N 54°11' E 012°05'3 1.7
2020-Jul-08 14:00N 54°13' E 012°07'2 3.0
2020-Jul-08 13:28N 54°12' E 012°06'1 2.5
2020-Jul-08 12:55N 54°11' E 012°06'2 1.0
2020-Jul-08 10:59N 54°12' E 012°05'2 0.3
2020-Jul-08 05:04N 54°11' E 012°06'0 0.0
2020-Jul-07 22:55N 54°11' E 012°06'0 0.0
2020-Jul-07 15:43N 54°11' E 012°06'1 1.5
2020-Jul-07 14:59N 54°12' E 012°05'2 1.3
2020-Jul-07 13:40N 54°13' E 012°04'3 1.4
2020-Jul-07 11:30N 54°10' E 012°06'2 4.6
2020-Jul-07 10:58N 54°13' E 012°04'2 0.3
2020-Jul-07 03:23N 54°11' E 012°06'0 0.0
2020-Jul-06 18:41N 54°11' E 012°06'0 0.0
2020-Jul-06 11:59N 54°11' E 012°06'3 2.2
2020-Jul-06 10:51N 54°08' E 012°06'4 4.3
2020-Jul-06 09:54N 54°12' E 012°05'2 1.1
2020-Jul-06 08:28N 54°11' E 012°06'0 0.0
2020-Jul-05 21:58N 54°11' E 012°06'1 0.1
2020-Jul-05 15:27N 54°10' E 012°06'1 0.2
2020-Jul-05 12:14N 54°11' E 012°06'4 2.0
2020-Jul-05 10:27N 54°14' E 012°03'4 0.7
2020-Jul-05 05:30N 54°11' E 012°06'0 0.0
2020-Jul-05 02:51N 54°11' E 012°06'0 0.0
2020-Jul-04 22:27N 54°11' E 012°06'0 0.0
2020-Jul-04 19:39N 54°11' E 012°06'0 0.0
2020-Jul-04 12:19N 54°11' E 012°06'0 0.0
2020-Jul-04 01:58N 54°11' E 012°06'0 0.0
2020-Jul-03 15:55N 54°11' E 012°06'0 0.8
2020-Jul-03 15:29N 54°11' E 012°05'3 2.7
2020-Jul-03 14:31N 54°14' E 012°06'1 1.6
2020-Jul-03 13:56N 54°13' E 012°06'1 0.2
2020-Jul-03 10:30N 54°13' E 012°07'2 1.5
2020-Jul-03 08:59N 54°11' E 012°06'0 0.0
2020-Jul-03 06:29N 54°11' E 012°06'0 0.0
2020-Jul-02 20:29N 54°11' E 012°06'0 0.0
2020-Jul-02 19:29N 54°11' E 012°06'0 0.0
2020-Jul-02 18:29N 54°11' E 012°06'0 0.0
2020-Jul-02 16:00N 54°11' E 012°06'3 1.9
2020-Jul-02 14:30N 54°13' E 012°08'3 1.0
2020-Jul-02 11:29N 54°11' E 012°06'0 0.0
2020-Jul-02 10:59N 54°11' E 012°06'0 0.0
2020-Jul-02 10:29N 54°11' E 012°06'0 0.0
2020-Jul-02 09:29N 54°11' E 012°06'0 0.0
2020-Jul-02 08:59N 54°11' E 012°06'0 0.0
2020-Jul-02 06:29N 54°11' E 012°06'0 0.0
2020-Jul-02 03:59N 54°11' E 012°06'0 0.0
2020-Jul-02 03:17N 54°11' E 012°06'0 0.0
2020-Jul-02 02:29N 54°11' E 012°06'0 0.0
2020-Jul-02 01:17N 54°11' E 012°06'0 0.0
2020-Jul-01 23:29N 54°11' E 012°06'0 0.0
2020-Jul-01 18:30N 54°11' E 012°06'16 6.2
2020-Jul-01 15:55N 54°22' E 011°48'19 6.6
2020-Jul-01 13:02N 54°30' E 011°18'39 5.0
2020-Jul-01 05:17N 54°26' E 010°11'0 0.0
2020-Jul-01 03:59N 54°26' E 010°11'0 0.0
2020-Jul-01 02:17N 54°26' E 010°11'0 0.0
2020-Jun-30 23:53N 54°26' E 010°11'0 0.0
2020-Jun-30 21:26N 54°26' E 010°11'0 0.0
2020-Jun-30 18:29N 54°26' E 010°11'0 0.0
2020-Jun-30 17:59N 54°26' E 010°11'11 4.0
2020-Jun-30 15:13N 54°21' E 009°54'4 6.4
2020-Jun-30 14:31N 54°21' E 009°46'7 6.8
2020-Jun-30 13:30N 54°16' E 009°38'37 6.1
2020-Jun-30 07:30N 53°50' E 008°53'52 7.3
2020-Jun-30 00:22N 53°50' E 007°25'11 7.5
2020-Jun-29 22:57N 53°48' E 007°07'3 6.9
2020-Jun-29 22:29N 53°47' E 007°02'49 8.1
2020-Jun-29 16:30N 53°34' E 005°43'5 9.4
2020-Jun-29 16:00N 53°32' E 005°36'  
Track history (hours):
 
Tides and Currents Weather Stations Pressure Air Temp Water Temp Dewpoint Dewpoint Depression Visibility Wind Speed Wind Dir Waves Ship Positions

Morgenster

Last reported at 2020-Jul-08 21:57 UTC. Time now 2020-Jul-09 04:53 UTC.
Position N 54°11' E 012°06'.

Length 38 m; draft 2.4 m.

Type: Sailing vessel. MMSI: 245136000.

Date/timePositionNaut miles runAvg speedWind from/ knotsBaromVisibWave heightAir tempDewpointWater temp
2020-Jul-08 21:57N 54°11' E 012°06'0 0.0
2020-Jul-08 20:30N 54°11' E 012°06'0 0.0
2020-Jul-08 17:24N 54°11' E 012°06'0 0.0
2020-Jul-08 16:57N 54°11' E 012°06'0 0.2
2020-Jul-08 15:30N 54°11' E 012°05'3 1.7
2020-Jul-08 14:00N 54°13' E 012°07'2 3.0
2020-Jul-08 13:28N 54°12' E 012°06'1 2.5
2020-Jul-08 12:55N 54°11' E 012°06'2 1.0
2020-Jul-08 10:59N 54°12' E 012°05'2 0.3
2020-Jul-08 05:04N 54°11' E 012°06'0 0.0
2020-Jul-07 22:55N 54°11' E 012°06'0 0.0
2020-Jul-07 15:43N 54°11' E 012°06'1 1.5
2020-Jul-07 14:59N 54°12' E 012°05'2 1.3
2020-Jul-07 13:40N 54°13' E 012°04'3 1.4
2020-Jul-07 11:30N 54°10' E 012°06'2 4.6
2020-Jul-07 10:58N 54°13' E 012°04'2 0.3
2020-Jul-07 03:23N 54°11' E 012°06'0 0.0
2020-Jul-06 18:41N 54°11' E 012°06'0 0.0
2020-Jul-06 11:59N 54°11' E 012°06'3 2.2
2020-Jul-06 10:51N 54°08' E 012°06'4 4.3
2020-Jul-06 09:54N 54°12' E 012°05'2 1.1
2020-Jul-06 08:28N 54°11' E 012°06'0 0.0
2020-Jul-05 21:58N 54°11' E 012°06'1 0.1
2020-Jul-05 15:27N 54°10' E 012°06'1 0.2
2020-Jul-05 12:14N 54°11' E 012°06'4 2.0
2020-Jul-05 10:27N 54°14' E 012°03'4 0.7
2020-Jul-05 05:30N 54°11' E 012°06'0 0.0
2020-Jul-05 02:51N 54°11' E 012°06'0 0.0
2020-Jul-04 22:27N 54°11' E 012°06'0 0.0
2020-Jul-04 19:39N 54°11' E 012°06'0 0.0
2020-Jul-04 12:19N 54°11' E 012°06'0 0.0
2020-Jul-04 01:58N 54°11' E 012°06'0 0.0
2020-Jul-03 15:55N 54°11' E 012°06'0 0.8
2020-Jul-03 15:29N 54°11' E 012°05'3 2.7
2020-Jul-03 14:31N 54°14' E 012°06'1 1.6
2020-Jul-03 13:56N 54°13' E 012°06'1 0.2
2020-Jul-03 10:30N 54°13' E 012°07'2 1.5
2020-Jul-03 08:59N 54°11' E 012°06'0 0.0
2020-Jul-03 06:29N 54°11' E 012°06'0 0.0
2020-Jul-02 20:29N 54°11' E 012°06'0 0.0
2020-Jul-02 19:29N 54°11' E 012°06'0 0.0
2020-Jul-02 18:29N 54°11' E 012°06'0 0.0
2020-Jul-02 16:00N 54°11' E 012°06'3 1.9
2020-Jul-02 14:30N 54°13' E 012°08'3 1.0
2020-Jul-02 11:29N 54°11' E 012°06'0 0.0
2020-Jul-02 10:59N 54°11' E 012°06'0 0.0
2020-Jul-02 10:29N 54°11' E 012°06'0 0.0
2020-Jul-02 09:29N 54°11' E 012°06'0 0.0
2020-Jul-02 08:59N 54°11' E 012°06'0 0.0
2020-Jul-02 06:29N 54°11' E 012°06'0 0.0
2020-Jul-02 03:59N 54°11' E 012°06'0 0.0
2020-Jul-02 03:17N 54°11' E 012°06'0 0.0
2020-Jul-02 02:29N 54°11' E 012°06'0 0.0
2020-Jul-02 01:17N 54°11' E 012°06'0 0.0
2020-Jul-01 23:29N 54°11' E 012°06'0 0.0
2020-Jul-01 18:30N 54°11' E 012°06'16 6.2
2020-Jul-01 15:55N 54°22' E 011°48'19 6.6
2020-Jul-01 13:02N 54°30' E 011°18'39 5.0
2020-Jul-01 05:17N 54°26' E 010°11'0 0.0
2020-Jul-01 03:59N 54°26' E 010°11'0 0.0
2020-Jul-01 02:17N 54°26' E 010°11'0 0.0
2020-Jun-30 23:53N 54°26' E 010°11'0 0.0
2020-Jun-30 21:26N 54°26' E 010°11'0 0.0
2020-Jun-30 18:29N 54°26' E 010°11'0 0.0
2020-Jun-30 17:59N 54°26' E 010°11'11 4.0
2020-Jun-30 15:13N 54°21' E 009°54'4 6.4
2020-Jun-30 14:31N 54°21' E 009°46'7 6.8
2020-Jun-30 13:30N 54°16' E 009°38'37 6.1
2020-Jun-30 07:30N 53°50' E 008°53'52 7.3
2020-Jun-30 00:22N 53°50' E 007°25'11 7.5
2020-Jun-29 22:57N 53°48' E 007°07'3 6.9
2020-Jun-29 22:29N 53°47' E 007°02'49 8.1
2020-Jun-29 16:30N 53°34' E 005°43'5 9.4
2020-Jun-29 16:00N 53°32' E 005°36'  

Dump ship's entire track history